sensor_id;sensor_type;location;lat;lon;timestamp;temperature;humidity
43920;DHT22;29578;51.946;5.874;2022-07-10T00:01:55;16.00;67.40
43920;DHT22;29578;51.946;5.874;2022-07-10T00:04:21;16.00;67.50
43920;DHT22;29578;51.946;5.874;2022-07-10T00:06:47;16.00;67.60
43920;DHT22;29578;51.946;5.874;2022-07-10T00:09:13;16.00;67.60
43920;DHT22;29578;51.946;5.874;2022-07-10T00:11:40;15.90;67.70
43920;DHT22;29578;51.946;5.874;2022-07-10T00:14:06;16.10;67.80
43920;DHT22;29578;51.946;5.874;2022-07-10T00:16:32;16.00;67.70
43920;DHT22;29578;51.946;5.874;2022-07-10T00:18:57;15.90;67.80
43920;DHT22;29578;51.946;5.874;2022-07-10T00:21:23;15.90;67.80
43920;DHT22;29578;51.946;5.874;2022-07-10T00:23:49;15.90;68.00
43920;DHT22;29578;51.946;5.874;2022-07-10T00:26:15;16.00;68.10
43920;DHT22;29578;51.946;5.874;2022-07-10T00:28:40;15.90;68.00
43920;DHT22;29578;51.946;5.874;2022-07-10T00:31:06;16.00;68.00
43920;DHT22;29578;51.946;5.874;2022-07-10T00:33:32;16.00;68.10
43920;DHT22;29578;51.946;5.874;2022-07-10T00:35:59;16.00;68.10
43920;DHT22;29578;51.946;5.874;2022-07-10T00:38:24;15.90;68.00
43920;DHT22;29578;51.946;5.874;2022-07-10T00:40:50;16.00;68.10
43920;DHT22;29578;51.946;5.874;2022-07-10T00:43:16;16.00;68.10
43920;DHT22;29578;51.946;5.874;2022-07-10T00:45:42;15.90;68.20
43920;DHT22;29578;51.946;5.874;2022-07-10T00:48:07;15.90;68.30
43920;DHT22;29578;51.946;5.874;2022-07-10T00:50:35;15.90;68.40
43920;DHT22;29578;51.946;5.874;2022-07-10T00:53:01;15.90;68.50
43920;DHT22;29578;51.946;5.874;2022-07-10T00:55:29;15.80;68.50
43920;DHT22;29578;51.946;5.874;2022-07-10T00:57:56;15.80;68.60
43920;DHT22;29578;51.946;5.874;2022-07-10T01:00:22;15.80;68.70
43920;DHT22;29578;51.946;5.874;2022-07-10T01:02:49;15.80;68.90
43920;DHT22;29578;51.946;5.874;2022-07-10T01:05:14;15.80;68.90
43920;DHT22;29578;51.946;5.874;2022-07-10T01:07:40;15.90;69.00
43920;DHT22;29578;51.946;5.874;2022-07-10T01:10:06;15.70;68.90
43920;DHT22;29578;51.946;5.874;2022-07-10T01:12:33;15.90;69.10
43920;DHT22;29578;51.946;5.874;2022-07-10T01:14:59;15.80;69.00
43920;DHT22;29578;51.946;5.874;2022-07-10T01:17:25;15.70;69.00
43920;DHT22;29578;51.946;5.874;2022-07-10T01:19:51;15.80;69.00
43920;DHT22;29578;51.946;5.874;2022-07-10T01:22:17;15.90;69.00
43920;DHT22;29578;51.946;5.874;2022-07-10T01:24:43;15.80;68.90
43920;DHT22;29578;51.946;5.874;2022-07-10T01:27:08;15.80;69.00
43920;DHT22;29578;51.946;5.874;2022-07-10T01:29:34;15.80;69.00
43920;DHT22;29578;51.946;5.874;2022-07-10T01:32:01;15.80;69.00
43920;DHT22;29578;51.946;5.874;2022-07-10T01:34:27;15.70;69.10
43920;DHT22;29578;51.946;5.874;2022-07-10T01:36:54;15.70;69.10
43920;DHT22;29578;51.946;5.874;2022-07-10T01:39:19;15.70;69.20
43920;DHT22;29578;51.946;5.874;2022-07-10T01:41:45;15.70;69.10
43920;DHT22;29578;51.946;5.874;2022-07-10T01:44:11;15.70;69.20
43920;DHT22;29578;51.946;5.874;2022-07-10T01:46:45;15.70;69.20
43920;DHT22;29578;51.946;5.874;2022-07-10T01:49:12;15.70;69.30
43920;DHT22;29578;51.946;5.874;2022-07-10T01:51:38;15.70;69.30
43920;DHT22;29578;51.946;5.874;2022-07-10T01:54:03;15.60;69.30
43920;DHT22;29578;51.946;5.874;2022-07-10T01:56:29;15.60;69.30
43920;DHT22;29578;51.946;5.874;2022-07-10T01:58:55;15.60;69.40
43920;DHT22;29578;51.946;5.874;2022-07-10T02:01:20;15.60;69.50
43920;DHT22;29578;51.946;5.874;2022-07-10T02:03:47;15.50;69.40
43920;DHT22;29578;51.946;5.874;2022-07-10T02:06:32;15.50;69.50
43920;DHT22;29578;51.946;5.874;2022-07-10T02:08:57;15.50;69.50
43920;DHT22;29578;51.946;5.874;2022-07-10T02:11:23;15.50;69.50
43920;DHT22;29578;51.946;5.874;2022-07-10T02:13:49;15.50;69.60
43920;DHT22;29578;51.946;5.874;2022-07-10T02:16:14;15.50;69.60
43920;DHT22;29578;51.946;5.874;2022-07-10T02:18:40;15.50;69.70
43920;DHT22;29578;51.946;5.874;2022-07-10T02:21:06;15.40;69.70
43920;DHT22;29578;51.946;5.874;2022-07-10T02:23:32;15.40;69.80
43920;DHT22;29578;51.946;5.874;2022-07-10T02:25:59;15.50;69.90
43920;DHT22;29578;51.946;5.874;2022-07-10T02:28:25;15.40;69.80
43920;DHT22;29578;51.946;5.874;2022-07-10T02:30:51;15.40;69.90
43920;DHT22;29578;51.946;5.874;2022-07-10T02:33:16;15.40;70.00
43920;DHT22;29578;51.946;5.874;2022-07-10T02:35:42;15.40;70.00
43920;DHT22;29578;51.946;5.874;2022-07-10T02:38:08;15.40;70.00
43920;DHT22;29578;51.946;5.874;2022-07-10T02:40:33;15.40;70.10
43920;DHT22;29578;51.946;5.874;2022-07-10T02:42:59;15.40;70.00
43920;DHT22;29578;51.946;5.874;2022-07-10T02:45:25;15.40;70.20
43920;DHT22;29578;51.946;5.874;2022-07-10T02:47:51;15.30;70.30
43920;DHT22;29578;51.946;5.874;2022-07-10T02:50:16;15.20;70.50
43920;DHT22;29578;51.946;5.874;2022-07-10T02:52:42;15.20;70.70
43920;DHT22;29578;51.946;5.874;2022-07-10T02:55:08;15.10;70.80
43920;DHT22;29578;51.946;5.874;2022-07-10T02:57:34;15.10;70.90
43920;DHT22;29578;51.946;5.874;2022-07-10T02:59:59;15.10;71.00
43920;DHT22;29578;51.946;5.874;2022-07-10T03:02:25;15.10;71.00
43920;DHT22;29578;51.946;5.874;2022-07-10T03:04:52;15.10;71.00
43920;DHT22;29578;51.946;5.874;2022-07-10T03:07:18;15.00;71.00
43920;DHT22;29578;51.946;5.874;2022-07-10T03:09:43;15.10;71.10
43920;DHT22;29578;51.946;5.874;2022-07-10T03:12:09;15.10;71.10
43920;DHT22;29578;51.946;5.874;2022-07-10T03:14:35;15.10;71.00
43920;DHT22;29578;51.946;5.874;2022-07-10T03:17:00;15.10;71.00
43920;DHT22;29578;51.946;5.874;2022-07-10T03:19:26;15.10;71.00
43920;DHT22;29578;51.946;5.874;2022-07-10T03:21:52;15.20;71.00
43920;DHT22;29578;51.946;5.874;2022-07-10T03:24:17;15.10;71.00
43920;DHT22;29578;51.946;5.874;2022-07-10T03:26:43;15.20;71.10
43920;DHT22;29578;51.946;5.874;2022-07-10T03:29:10;15.10;71.00
43920;DHT22;29578;51.946;5.874;2022-07-10T03:31:35;15.20;71.00
43920;DHT22;29578;51.946;5.874;2022-07-10T03:34:01;15.20;71.00
43920;DHT22;29578;51.946;5.874;2022-07-10T03:36:27;15.20;71.00
43920;DHT22;29578;51.946;5.874;2022-07-10T03:38:53;15.20;71.00
43920;DHT22;29578;51.946;5.874;2022-07-10T03:41:18;15.20;71.00
43920;DHT22;29578;51.946;5.874;2022-07-10T03:43:44;15.20;71.00
43920;DHT22;29578;51.946;5.874;2022-07-10T03:46:10;15.20;71.00
43920;DHT22;29578;51.946;5.874;2022-07-10T03:48:36;15.20;71.00
43920;DHT22;29578;51.946;5.874;2022-07-10T03:51:02;15.30;71.10
43920;DHT22;29578;51.946;5.874;2022-07-10T03:53:28;15.40;71.10
43920;DHT22;29578;51.946;5.874;2022-07-10T03:55:54;15.20;71.00
43920;DHT22;29578;51.946;5.874;2022-07-10T03:58:20;15.30;71.10
43920;DHT22;29578;51.946;5.874;2022-07-10T04:00:46;15.20;71.10
43920;DHT22;29578;51.946;5.874;2022-07-10T04:03:12;15.30;71.10
43920;DHT22;29578;51.946;5.874;2022-07-10T04:05:39;15.30;71.20
43920;DHT22;29578;51.946;5.874;2022-07-10T04:08:05;15.20;71.10
43920;DHT22;29578;51.946;5.874;2022-07-10T04:10:32;15.30;71.20
43920;DHT22;29578;51.946;5.874;2022-07-10T04:12:58;15.30;71.10
43920;DHT22;29578;51.946;5.874;2022-07-10T04:15:24;15.40;71.10
43920;DHT22;29578;51.946;5.874;2022-07-10T04:17:51;15.30;71.00
43920;DHT22;29578;51.946;5.874;2022-07-10T04:20:17;15.40;71.10
43920;DHT22;29578;51.946;5.874;2022-07-10T04:22:44;15.40;71.10
43920;DHT22;29578;51.946;5.874;2022-07-10T04:25:10;15.40;71.10
43920;DHT22;29578;51.946;5.874;2022-07-10T04:27:36;15.40;71.00
43920;DHT22;29578;51.946;5.874;2022-07-10T04:30:03;15.60;71.20
43920;DHT22;29578;51.946;5.874;2022-07-10T04:32:29;15.50;71.10
43920;DHT22;29578;51.946;5.874;2022-07-10T04:34:55;15.50;71.10
43920;DHT22;29578;51.946;5.874;2022-07-10T04:37:21;15.50;71.10
43920;DHT22;29578;51.946;5.874;2022-07-10T04:39:46;15.50;71.10
43920;DHT22;29578;51.946;5.874;2022-07-10T04:42:12;15.50;71.10
43920;DHT22;29578;51.946;5.874;2022-07-10T04:44:38;15.50;71.10
43920;DHT22;29578;51.946;5.874;2022-07-10T04:47:04;15.50;71.10
43920;DHT22;29578;51.946;5.874;2022-07-10T04:49:32;15.60;71.20
43920;DHT22;29578;51.946;5.874;2022-07-10T04:51:58;15.60;71.20
43920;DHT22;29578;51.946;5.874;2022-07-10T04:54:24;15.50;71.20
43920;DHT22;29578;51.946;5.874;2022-07-10T04:56:50;15.50;71.20
43920;DHT22;29578;51.946;5.874;2022-07-10T04:59:15;15.60;71.30
43920;DHT22;29578;51.946;5.874;2022-07-10T05:01:41;15.60;71.30
43920;DHT22;29578;51.946;5.874;2022-07-10T05:04:07;15.60;71.30
43920;DHT22;29578;51.946;5.874;2022-07-10T05:06:34;15.60;71.30
43920;DHT22;29578;51.946;5.874;2022-07-10T05:09:00;15.60;71.20
43920;DHT22;29578;51.946;5.874;2022-07-10T05:11:25;15.60;71.20
43920;DHT22;29578;51.946;5.874;2022-07-10T05:13:51;15.70;71.10
43920;DHT22;29578;51.946;5.874;2022-07-10T05:16:18;15.70;71.20
43920;DHT22;29578;51.946;5.874;2022-07-10T05:18:44;15.70;71.10
43920;DHT22;29578;51.946;5.874;2022-07-10T05:21:10;15.70;71.00
43920;DHT22;29578;51.946;5.874;2022-07-10T05:23:37;15.80;71.00
43920;DHT22;29578;51.946;5.874;2022-07-10T05:26:04;15.90;71.00
43920;DHT22;29578;51.946;5.874;2022-07-10T05:28:29;15.90;71.00
43920;DHT22;29578;51.946;5.874;2022-07-10T05:30:55;15.90;71.00
43920;DHT22;29578;51.946;5.874;2022-07-10T05:33:20;15.90;71.00
43920;DHT22;29578;51.946;5.874;2022-07-10T05:35:46;15.90;71.00
43920;DHT22;29578;51.946;5.874;2022-07-10T05:38:12;15.80;70.90
43920;DHT22;29578;51.946;5.874;2022-07-10T05:40:38;16.00;71.00
43920;DHT22;29578;51.946;5.874;2022-07-10T05:43:03;16.00;70.90
43920;DHT22;29578;51.946;5.874;2022-07-10T05:45:29;16.00;70.90
43920;DHT22;29578;51.946;5.874;2022-07-10T05:47:55;16.10;70.80
43920;DHT22;29578;51.946;5.874;2022-07-10T05:50:21;16.10;70.80
43920;DHT22;29578;51.946;5.874;2022-07-10T05:52:46;16.10;70.80
43920;DHT22;29578;51.946;5.874;2022-07-10T05:55:13;16.10;70.90
43920;DHT22;29578;51.946;5.874;2022-07-10T05:57:39;16.00;70.80
43920;DHT22;29578;51.946;5.874;2022-07-10T06:00:07;16.10;70.90
43920;DHT22;29578;51.946;5.874;2022-07-10T06:02:33;16.10;71.00
43920;DHT22;29578;51.946;5.874;2022-07-10T06:04:58;16.10;71.10
43920;DHT22;29578;51.946;5.874;2022-07-10T06:07:26;16.20;71.20
43920;DHT22;29578;51.946;5.874;2022-07-10T06:09:52;16.20;71.10
43920;DHT22;29578;51.946;5.874;2022-07-10T06:12:18;16.20;71.20
43920;DHT22;29578;51.946;5.874;2022-07-10T06:14:44;16.10;71.20
43920;DHT22;29578;51.946;5.874;2022-07-10T06:17:10;16.10;71.20
43920;DHT22;29578;51.946;5.874;2022-07-10T06:19:36;16.10;71.30
43920;DHT22;29578;51.946;5.874;2022-07-10T06:22:02;16.10;71.40
43920;DHT22;29578;51.946;5.874;2022-07-10T06:24:38;16.20;71.40
43920;DHT22;29578;51.946;5.874;2022-07-10T06:27:05;16.20;71.40
43920;DHT22;29578;51.946;5.874;2022-07-10T06:29:30;16.20;71.50
43920;DHT22;29578;51.946;5.874;2022-07-10T06:31:56;16.10;71.60
43920;DHT22;29578;51.946;5.874;2022-07-10T06:34:22;16.10;71.70
43920;DHT22;29578;51.946;5.874;2022-07-10T06:36:48;16.10;71.80
43920;DHT22;29578;51.946;5.874;2022-07-10T06:39:13;16.10;72.00
43920;DHT22;29578;51.946;5.874;2022-07-10T06:41:39;16.10;72.10
43920;DHT22;29578;51.946;5.874;2022-07-10T06:44:05;16.10;72.20
43920;DHT22;29578;51.946;5.874;2022-07-10T06:46:32;16.20;72.30
43920;DHT22;29578;51.946;5.874;2022-07-10T06:48:58;16.10;72.30
43920;DHT22;29578;51.946;5.874;2022-07-10T06:51:24;16.10;72.30
43920;DHT22;29578;51.946;5.874;2022-07-10T06:53:50;16.10;72.40
43920;DHT22;29578;51.946;5.874;2022-07-10T06:56:16;16.10;72.50
43920;DHT22;29578;51.946;5.874;2022-07-10T06:58:43;16.10;72.70
43920;DHT22;29578;51.946;5.874;2022-07-10T07:01:08;16.00;72.90
43920;DHT22;29578;51.946;5.874;2022-07-10T07:03:34;16.00;72.90
43920;DHT22;29578;51.946;5.874;2022-07-10T07:06:00;16.00;73.20
43920;DHT22;29578;51.946;5.874;2022-07-10T07:08:25;15.90;73.20
43920;DHT22;29578;51.946;5.874;2022-07-10T07:10:51;16.00;73.50
43920;DHT22;29578;51.946;5.874;2022-07-10T07:13:17;15.90;73.40
43920;DHT22;29578;51.946;5.874;2022-07-10T07:15:43;15.90;73.60
43920;DHT22;29578;51.946;5.874;2022-07-10T07:18:15;15.90;73.80
43920;DHT22;29578;51.946;5.874;2022-07-10T07:20:41;15.80;73.90
43920;DHT22;29578;51.946;5.874;2022-07-10T07:23:22;15.90;74.10
43920;DHT22;29578;51.946;5.874;2022-07-10T07:25:48;15.90;74.20
43920;DHT22;29578;51.946;5.874;2022-07-10T07:28:15;16.00;74.30
43920;DHT22;29578;51.946;5.874;2022-07-10T07:30:42;15.90;74.40
43920;DHT22;29578;51.946;5.874;2022-07-10T07:33:08;16.00;74.40
43920;DHT22;29578;51.946;5.874;2022-07-10T07:35:34;15.90;74.40
43920;DHT22;29578;51.946;5.874;2022-07-10T07:38:02;15.90;74.30
43920;DHT22;29578;51.946;5.874;2022-07-10T07:40:28;16.00;74.60
43920;DHT22;29578;51.946;5.874;2022-07-10T07:42:55;16.00;74.60
43920;DHT22;29578;51.946;5.874;2022-07-10T07:45:22;15.90;74.80
43920;DHT22;29578;51.946;5.874;2022-07-10T07:47:53;16.00;75.00
43920;DHT22;29578;51.946;5.874;2022-07-10T07:50:23;16.00;74.90
43920;DHT22;29578;51.946;5.874;2022-07-10T07:52:51;16.10;74.90
43920;DHT22;29578;51.946;5.874;2022-07-10T07:55:18;16.20;74.80
43920;DHT22;29578;51.946;5.874;2022-07-10T07:57:44;16.30;74.80
43920;DHT22;29578;51.946;5.874;2022-07-10T08:00:11;16.30;74.70
43920;DHT22;29578;51.946;5.874;2022-07-10T08:02:39;16.40;74.60
43920;DHT22;29578;51.946;5.874;2022-07-10T08:05:05;16.60;74.50
43920;DHT22;29578;51.946;5.874;2022-07-10T08:07:43;16.70;74.30
43920;DHT22;29578;51.946;5.874;2022-07-10T08:10:11;16.60;74.20
43920;DHT22;29578;51.946;5.874;2022-07-10T08:12:37;16.60;74.30
43920;DHT22;29578;51.946;5.874;2022-07-10T08:15:06;16.60;74.40
43920;DHT22;29578;51.946;5.874;2022-07-10T08:17:32;16.60;74.50
43920;DHT22;29578;51.946;5.874;2022-07-10T08:19:58;16.70;74.60
43920;DHT22;29578;51.946;5.874;2022-07-10T08:22:23;16.70;74.60
43920;DHT22;29578;51.946;5.874;2022-07-10T08:24:49;16.80;74.50
43920;DHT22;29578;51.946;5.874;2022-07-10T08:27:15;16.80;74.40
43920;DHT22;29578;51.946;5.874;2022-07-10T08:29:41;17.00;74.10
43920;DHT22;29578;51.946;5.874;2022-07-10T08:32:07;17.10;74.00
43920;DHT22;29578;51.946;5.874;2022-07-10T08:34:35;17.30;73.80
43920;DHT22;29578;51.946;5.874;2022-07-10T08:37:01;17.30;73.50
43920;DHT22;29578;51.946;5.874;2022-07-10T08:39:27;17.50;73.40
43920;DHT22;29578;51.946;5.874;2022-07-10T08:41:53;17.60;73.30
43920;DHT22;29578;51.946;5.874;2022-07-10T08:44:19;17.60;73.00
43920;DHT22;29578;51.946;5.874;2022-07-10T08:46:45;17.70;72.80
43920;DHT22;29578;51.946;5.874;2022-07-10T08:49:11;17.70;72.80
43920;DHT22;29578;51.946;5.874;2022-07-10T08:52:02;17.80;72.70
43920;DHT22;29578;51.946;5.874;2022-07-10T08:54:29;17.90;72.70
43920;DHT22;29578;51.946;5.874;2022-07-10T08:56:57;17.80;72.70
43920;DHT22;29578;51.946;5.874;2022-07-10T08:59:23;17.80;72.80
43920;DHT22;29578;51.946;5.874;2022-07-10T09:01:49;17.70;72.90
43920;DHT22;29578;51.946;5.874;2022-07-10T09:04:17;17.70;73.00
43920;DHT22;29578;51.946;5.874;2022-07-10T09:06:44;17.70;73.20
43920;DHT22;29578;51.946;5.874;2022-07-10T09:09:10;17.70;73.20
43920;DHT22;29578;51.946;5.874;2022-07-10T09:11:39;17.90;73.10
43920;DHT22;29578;51.946;5.874;2022-07-10T09:14:07;18.10;72.60
43920;DHT22;29578;51.946;5.874;2022-07-10T09:16:35;18.20;72.50
43920;DHT22;29578;51.946;5.874;2022-07-10T09:19:22;18.40;72.20
43920;DHT22;29578;51.946;5.874;2022-07-10T09:21:51;18.70;71.70
43920;DHT22;29578;51.946;5.874;2022-07-10T09:24:17;18.90;71.00
43920;DHT22;29578;51.946;5.874;2022-07-10T09:26:59;19.10;70.50
43920;DHT22;29578;51.946;5.874;2022-07-10T09:29:25;19.20;70.30
43920;DHT22;29578;51.946;5.874;2022-07-10T09:31:53;19.30;70.20
43920;DHT22;29578;51.946;5.874;2022-07-10T09:34:43;19.30;70.20
43920;DHT22;29578;51.946;5.874;2022-07-10T09:37:27;19.40;70.10
43920;DHT22;29578;51.946;5.874;2022-07-10T09:39:56;19.40;70.10
43920;DHT22;29578;51.946;5.874;2022-07-10T09:42:26;19.30;70.00
43920;DHT22;29578;51.946;5.874;2022-07-10T09:45:05;19.20;70.20
43920;DHT22;29578;51.946;5.874;2022-07-10T09:47:42;19.20;70.50
43920;DHT22;29578;51.946;5.874;2022-07-10T09:50:28;19.10;70.50
43920;DHT22;29578;51.946;5.874;2022-07-10T09:52:57;19.20;70.60
43920;DHT22;29578;51.946;5.874;2022-07-10T09:55:25;19.20;70.60
43920;DHT22;29578;51.946;5.874;2022-07-10T09:57:56;19.30;70.30
43920;DHT22;29578;51.946;5.874;2022-07-10T10:00:24;19.30;70.30
43920;DHT22;29578;51.946;5.874;2022-07-10T10:02:55;19.30;70.50
43920;DHT22;29578;51.946;5.874;2022-07-10T10:05:30;19.10;70.60
43920;DHT22;29578;51.946;5.874;2022-07-10T10:10:28;19.10;70.80
43920;DHT22;29578;51.946;5.874;2022-07-10T10:12:58;19.10;70.90
43920;DHT22;29578;51.946;5.874;2022-07-10T10:15:25;19.20;70.80
43920;DHT22;29578;51.946;5.874;2022-07-10T10:17:51;19.40;70.40
43920;DHT22;29578;51.946;5.874;2022-07-10T10:20:19;19.60;70.10
43920;DHT22;29578;51.946;5.874;2022-07-10T10:23:04;19.70;69.60
43920;DHT22;29578;51.946;5.874;2022-07-10T10:25:32;19.90;69.20
43920;DHT22;29578;51.946;5.874;2022-07-10T10:28:01;19.90;68.80
43920;DHT22;29578;51.946;5.874;2022-07-10T10:30:27;20.00;68.70
43920;DHT22;29578;51.946;5.874;2022-07-10T10:32:54;20.20;68.50
43920;DHT22;29578;51.946;5.874;2022-07-10T10:35:43;20.30;68.30
43920;DHT22;29578;51.946;5.874;2022-07-10T10:38:13;20.30;68.10
43920;DHT22;29578;51.946;5.874;2022-07-10T10:40:39;20.30;68.30
43920;DHT22;29578;51.946;5.874;2022-07-10T10:43:22;20.30;68.40
43920;DHT22;29578;51.946;5.874;2022-07-10T10:45:50;20.20;68.50
43920;DHT22;29578;51.946;5.874;2022-07-10T10:48:17;20.20;68.50
43920;DHT22;29578;51.946;5.874;2022-07-10T10:50:48;20.30;68.40
43920;DHT22;29578;51.946;5.874;2022-07-10T10:53:20;20.30;68.10
43920;DHT22;29578;51.946;5.874;2022-07-10T10:56:20;20.20;68.10
43920;DHT22;29578;51.946;5.874;2022-07-10T10:58:46;20.20;68.30
43920;DHT22;29578;51.946;5.874;2022-07-10T11:01:24;20.10;68.40
43920;DHT22;29578;51.946;5.874;2022-07-10T11:06:49;20.30;68.30
43920;DHT22;29578;51.946;5.874;2022-07-10T11:09:31;20.30;68.20
43920;DHT22;29578;51.946;5.874;2022-07-10T11:12:00;20.30;68.20
43920;DHT22;29578;51.946;5.874;2022-07-10T11:14:27;20.30;68.20
43920;DHT22;29578;51.946;5.874;2022-07-10T11:16:55;20.50;68.20
43920;DHT22;29578;51.946;5.874;2022-07-10T11:19:24;20.60;67.90
43920;DHT22;29578;51.946;5.874;2022-07-10T11:21:58;20.90;67.60
43920;DHT22;29578;51.946;5.874;2022-07-10T11:27:52;21.30;66.70
43920;DHT22;29578;51.946;5.874;2022-07-10T11:30:25;21.40;66.50
43920;DHT22;29578;51.946;5.874;2022-07-10T11:32:51;21.40;66.60
43920;DHT22;29578;51.946;5.874;2022-07-10T11:35:18;21.30;66.80
43920;DHT22;29578;51.946;5.874;2022-07-10T11:37:52;21.10;67.10
43920;DHT22;29578;51.946;5.874;2022-07-10T11:40:19;21.00;67.40
43920;DHT22;29578;51.946;5.874;2022-07-10T11:42:54;21.00;67.50
43920;DHT22;29578;51.946;5.874;2022-07-10T11:45:29;21.00;67.50
43920;DHT22;29578;51.946;5.874;2022-07-10T11:47:56;21.00;67.40
43920;DHT22;29578;51.946;5.874;2022-07-10T11:50:22;21.00;67.40
43920;DHT22;29578;51.946;5.874;2022-07-10T11:52:49;20.90;67.60
43920;DHT22;29578;51.946;5.874;2022-07-10T11:55:18;20.80;67.70
43920;DHT22;29578;51.946;5.874;2022-07-10T11:57:45;20.80;67.80
43920;DHT22;29578;51.946;5.874;2022-07-10T12:00:25;20.90;67.80
43920;DHT22;29578;51.946;5.874;2022-07-10T12:02:52;21.00;67.60
43920;DHT22;29578;51.946;5.874;2022-07-10T12:05:36;21.10;67.30
43920;DHT22;29578;51.946;5.874;2022-07-10T12:08:03;21.20;67.10
43920;DHT22;29578;51.946;5.874;2022-07-10T12:10:31;21.20;66.90
43920;DHT22;29578;51.946;5.874;2022-07-10T12:13:07;21.20;67.00
43920;DHT22;29578;51.946;5.874;2022-07-10T12:15:34;21.10;67.00
43920;DHT22;29578;51.946;5.874;2022-07-10T12:18:02;21.10;67.20
43920;DHT22;29578;51.946;5.874;2022-07-10T12:20:28;21.00;67.40
43920;DHT22;29578;51.946;5.874;2022-07-10T12:22:54;21.00;67.50
43920;DHT22;29578;51.946;5.874;2022-07-10T12:25:21;21.00;67.40
43920;DHT22;29578;51.946;5.874;2022-07-10T12:27:46;21.00;67.30
43920;DHT22;29578;51.946;5.874;2022-07-10T12:30:12;20.90;67.20
43920;DHT22;29578;51.946;5.874;2022-07-10T12:32:38;21.00;67.90
43920;DHT22;29578;51.946;5.874;2022-07-10T12:35:04;21.10;67.20
43920;DHT22;29578;51.946;5.874;2022-07-10T12:37:33;21.10;66.90
43920;DHT22;29578;51.946;5.874;2022-07-10T12:39:58;21.20;66.70
43920;DHT22;29578;51.946;5.874;2022-07-10T12:42:27;21.30;66.60
43920;DHT22;29578;51.946;5.874;2022-07-10T12:44:53;21.30;66.50
43920;DHT22;29578;51.946;5.874;2022-07-10T12:47:20;21.30;66.20
43920;DHT22;29578;51.946;5.874;2022-07-10T12:49:53;21.40;66.30
43920;DHT22;29578;51.946;5.874;2022-07-10T12:52:25;21.40;66.00
43920;DHT22;29578;51.946;5.874;2022-07-10T12:55:11;21.50;65.90
43920;DHT22;29578;51.946;5.874;2022-07-10T12:57:56;21.50;65.80
43920;DHT22;29578;51.946;5.874;2022-07-10T13:00:25;21.60;65.70
43920;DHT22;29578;51.946;5.874;2022-07-10T13:03:04;21.70;65.70
43920;DHT22;29578;51.946;5.874;2022-07-10T13:05:33;21.80;65.40
43920;DHT22;29578;51.946;5.874;2022-07-10T13:08:17;21.90;65.20
43920;DHT22;29578;51.946;5.874;2022-07-10T13:10:52;21.90;65.10
43920;DHT22;29578;51.946;5.874;2022-07-10T13:13:18;21.90;64.90
43920;DHT22;29578;51.946;5.874;2022-07-10T13:15:45;21.80;64.90
43920;DHT22;29578;51.946;5.874;2022-07-10T13:18:18;21.80;65.00
43920;DHT22;29578;51.946;5.874;2022-07-10T13:20:45;21.80;65.10
43920;DHT22;29578;51.946;5.874;2022-07-10T13:23:11;21.80;65.00
43920;DHT22;29578;51.946;5.874;2022-07-10T13:25:38;21.80;64.90
43920;DHT22;29578;51.946;5.874;2022-07-10T13:28:05;21.90;65.00
43920;DHT22;29578;51.946;5.874;2022-07-10T13:30:34;21.90;64.80
43920;DHT22;29578;51.946;5.874;2022-07-10T13:32:59;21.90;64.80
43920;DHT22;29578;51.946;5.874;2022-07-10T13:35:29;21.90;64.70
43920;DHT22;29578;51.946;5.874;2022-07-10T13:37:56;21.90;64.80
43920;DHT22;29578;51.946;5.874;2022-07-10T13:40:27;21.80;64.80
43920;DHT22;29578;51.946;5.874;2022-07-10T13:42:52;21.90;65.00
43920;DHT22;29578;51.946;5.874;2022-07-10T13:45:19;21.90;64.80
43920;DHT22;29578;51.946;5.874;2022-07-10T13:47:45;22.00;64.80
43920;DHT22;29578;51.946;5.874;2022-07-10T13:50:11;22.10;64.70
43920;DHT22;29578;51.946;5.874;2022-07-10T13:52:37;22.20;64.20
43920;DHT22;29578;51.946;5.874;2022-07-10T13:55:02;22.20;63.80
43920;DHT22;29578;51.946;5.874;2022-07-10T13:57:30;22.20;64.20
43920;DHT22;29578;51.946;5.874;2022-07-10T13:59:56;22.10;64.30
43920;DHT22;29578;51.946;5.874;2022-07-10T14:02:22;22.10;64.40
43920;DHT22;29578;51.946;5.874;2022-07-10T14:04:47;22.00;65.10
43920;DHT22;29578;51.946;5.874;2022-07-10T14:07:13;22.00;64.40
43920;DHT22;29578;51.946;5.874;2022-07-10T14:09:39;22.00;64.50
43920;DHT22;29578;51.946;5.874;2022-07-10T14:12:06;22.10;64.40
43920;DHT22;29578;51.946;5.874;2022-07-10T14:14:31;22.20;64.20
43920;DHT22;29578;51.946;5.874;2022-07-10T14:16:57;22.30;63.90
43920;DHT22;29578;51.946;5.874;2022-07-10T14:19:23;22.30;63.80
43920;DHT22;29578;51.946;5.874;2022-07-10T14:21:49;22.40;63.60
43920;DHT22;29578;51.946;5.874;2022-07-10T14:24:14;22.50;63.50
43920;DHT22;29578;51.946;5.874;2022-07-10T14:26:40;22.60;63.30
43920;DHT22;29578;51.946;5.874;2022-07-10T14:29:06;22.50;63.10
43920;DHT22;29578;51.946;5.874;2022-07-10T14:31:32;22.50;63.10
43920;DHT22;29578;51.946;5.874;2022-07-10T14:33:58;22.40;63.20
43920;DHT22;29578;51.946;5.874;2022-07-10T14:36:24;22.40;62.90
43920;DHT22;29578;51.946;5.874;2022-07-10T14:38:53;22.40;62.80
43920;DHT22;29578;51.946;5.874;2022-07-10T14:41:19;22.40;62.80
43920;DHT22;29578;51.946;5.874;2022-07-10T14:43:45;22.30;62.60
43920;DHT22;29578;51.946;5.874;2022-07-10T14:46:11;22.40;62.60
43920;DHT22;29578;51.946;5.874;2022-07-10T14:48:37;22.40;62.50
43920;DHT22;29578;51.946;5.874;2022-07-10T14:51:03;22.30;62.50
43920;DHT22;29578;51.946;5.874;2022-07-10T14:53:28;22.40;62.50
43920;DHT22;29578;51.946;5.874;2022-07-10T14:55:55;22.40;62.50
43920;DHT22;29578;51.946;5.874;2022-07-10T14:58:21;22.50;62.30
43920;DHT22;29578;51.946;5.874;2022-07-10T15:00:47;22.40;62.30
43920;DHT22;29578;51.946;5.874;2022-07-10T15:03:12;22.40;62.20
43920;DHT22;29578;51.946;5.874;2022-07-10T15:05:38;22.50;62.20
43920;DHT22;29578;51.946;5.874;2022-07-10T15:08:04;22.50;62.10
43920;DHT22;29578;51.946;5.874;2022-07-10T15:10:31;22.50;61.90
43920;DHT22;29578;51.946;5.874;2022-07-10T15:12:58;22.60;61.90
43920;DHT22;29578;51.946;5.874;2022-07-10T15:15:25;22.60;61.90
43920;DHT22;29578;51.946;5.874;2022-07-10T15:17:51;22.60;61.90
43920;DHT22;29578;51.946;5.874;2022-07-10T15:20:16;22.50;61.70
43920;DHT22;29578;51.946;5.874;2022-07-10T15:22:44;22.50;62.00
43920;DHT22;29578;51.946;5.874;2022-07-10T15:25:10;22.50;62.20
43920;DHT22;29578;51.946;5.874;2022-07-10T15:27:36;22.60;62.10
43920;DHT22;29578;51.946;5.874;2022-07-10T15:30:02;22.70;61.90
43920;DHT22;29578;51.946;5.874;2022-07-10T15:32:29;22.90;61.60
43920;DHT22;29578;51.946;5.874;2022-07-10T15:34:55;22.90;61.30
43920;DHT22;29578;51.946;5.874;2022-07-10T15:37:21;22.90;61.30
43920;DHT22;29578;51.946;5.874;2022-07-10T15:39:48;22.90;61.30
43920;DHT22;29578;51.946;5.874;2022-07-10T15:42:14;22.90;61.30